sensor_id;sensor_type;location;lat;lon;timestamp;temperature;humidity
12837;DHT22;6485;51.472;5.268;2023-04-25T00:00:24;7.30;99.90
12837;DHT22;6485;51.472;5.268;2023-04-25T00:02:52;7.30;99.90
12837;DHT22;6485;51.472;5.268;2023-04-25T00:05:22;7.20;99.90
12837;DHT22;6485;51.472;5.268;2023-04-25T00:07:52;7.20;99.90
12837;DHT22;6485;51.472;5.268;2023-04-25T00:10:20;7.10;99.90
12837;DHT22;6485;51.472;5.268;2023-04-25T00:12:48;7.20;99.90
12837;DHT22;6485;51.472;5.268;2023-04-25T00:15:16;7.20;99.90
12837;DHT22;6485;51.472;5.268;2023-04-25T00:17:44;7.20;99.90
12837;DHT22;6485;51.472;5.268;2023-04-25T00:20:13;7.20;99.90
12837;DHT22;6485;51.472;5.268;2023-04-25T00:22:41;7.20;99.90
12837;DHT22;6485;51.472;5.268;2023-04-25T00:25:11;7.30;99.90
12837;DHT22;6485;51.472;5.268;2023-04-25T00:27:38;7.20;99.90
12837;DHT22;6485;51.472;5.268;2023-04-25T00:30:08;7.20;99.90
12837;DHT22;6485;51.472;5.268;2023-04-25T00:32:36;7.20;99.90
12837;DHT22;6485;51.472;5.268;2023-04-25T00:35:04;7.20;99.90
12837;DHT22;6485;51.472;5.268;2023-04-25T00:37:32;7.20;99.90
12837;DHT22;6485;51.472;5.268;2023-04-25T00:40:00;7.20;99.90
12837;DHT22;6485;51.472;5.268;2023-04-25T00:42:30;7.20;99.90
12837;DHT22;6485;51.472;5.268;2023-04-25T00:44:59;7.20;99.90
12837;DHT22;6485;51.472;5.268;2023-04-25T00:47:27;7.30;99.90
12837;DHT22;6485;51.472;5.268;2023-04-25T00:49:55;7.20;99.90
12837;DHT22;6485;51.472;5.268;2023-04-25T00:52:23;7.20;99.90
12837;DHT22;6485;51.472;5.268;2023-04-25T00:54:51;7.20;99.90
12837;DHT22;6485;51.472;5.268;2023-04-25T00:57:19;7.20;99.90
12837;DHT22;6485;51.472;5.268;2023-04-25T00:59:48;7.20;99.90
12837;DHT22;6485;51.472;5.268;2023-04-25T01:02:18;7.20;99.90
12837;DHT22;6485;51.472;5.268;2023-04-25T01:04:47;7.20;99.90
12837;DHT22;6485;51.472;5.268;2023-04-25T01:07:15;7.20;99.90
12837;DHT22;6485;51.472;5.268;2023-04-25T01:09:43;7.10;99.90
12837;DHT22;6485;51.472;5.268;2023-04-25T01:12:11;7.10;99.90
12837;DHT22;6485;51.472;5.268;2023-04-25T01:14:41;7.20;99.90
12837;DHT22;6485;51.472;5.268;2023-04-25T01:17:10;7.20;99.90
12837;DHT22;6485;51.472;5.268;2023-04-25T01:19:38;7.20;99.90
12837;DHT22;6485;51.472;5.268;2023-04-25T01:22:07;7.10;99.90
12837;DHT22;6485;51.472;5.268;2023-04-25T01:24:37;7.10;99.90
12837;DHT22;6485;51.472;5.268;2023-04-25T01:27:05;7.00;99.90
12837;DHT22;6485;51.472;5.268;2023-04-25T01:29:34;7.00;99.90
12837;DHT22;6485;51.472;5.268;2023-04-25T01:32:02;7.00;99.90
12837;DHT22;6485;51.472;5.268;2023-04-25T01:34:30;7.00;99.90
12837;DHT22;6485;51.472;5.268;2023-04-25T01:36:59;7.00;99.90
12837;DHT22;6485;51.472;5.268;2023-04-25T01:39:28;6.90;99.90
12837;DHT22;6485;51.472;5.268;2023-04-25T01:41:56;6.90;99.90
12837;DHT22;6485;51.472;5.268;2023-04-25T01:44:24;6.80;99.90
12837;DHT22;6485;51.472;5.268;2023-04-25T01:46:53;6.80;99.90
12837;DHT22;6485;51.472;5.268;2023-04-25T01:49:21;6.80;99.90
12837;DHT22;6485;51.472;5.268;2023-04-25T01:51:49;6.80;99.90
12837;DHT22;6485;51.472;5.268;2023-04-25T01:54:17;6.80;99.90
12837;DHT22;6485;51.472;5.268;2023-04-25T01:56:50;6.80;99.90
12837;DHT22;6485;51.472;5.268;2023-04-25T01:59:19;6.80;99.90
12837;DHT22;6485;51.472;5.268;2023-04-25T02:01:48;6.90;99.90
12837;DHT22;6485;51.472;5.268;2023-04-25T02:04:16;6.80;99.90
12837;DHT22;6485;51.472;5.268;2023-04-25T02:06:44;6.80;99.90
12837;DHT22;6485;51.472;5.268;2023-04-25T02:09:13;6.80;99.90
12837;DHT22;6485;51.472;5.268;2023-04-25T02:11:40;6.80;99.90
12837;DHT22;6485;51.472;5.268;2023-04-25T02:14:10;6.70;99.90
12837;DHT22;6485;51.472;5.268;2023-04-25T02:16:37;6.70;99.90
12837;DHT22;6485;51.472;5.268;2023-04-25T02:19:06;6.70;99.90
12837;DHT22;6485;51.472;5.268;2023-04-25T02:21:34;6.70;99.90
12837;DHT22;6485;51.472;5.268;2023-04-25T02:24:03;6.70;99.90
12837;DHT22;6485;51.472;5.268;2023-04-25T02:26:31;6.60;99.90
12837;DHT22;6485;51.472;5.268;2023-04-25T02:28:58;6.70;99.90
12837;DHT22;6485;51.472;5.268;2023-04-25T02:31:29;6.50;99.90
12837;DHT22;6485;51.472;5.268;2023-04-25T02:33:57;6.50;99.90
12837;DHT22;6485;51.472;5.268;2023-04-25T02:36:24;6.50;99.90
12837;DHT22;6485;51.472;5.268;2023-04-25T02:38:52;6.50;99.90
12837;DHT22;6485;51.472;5.268;2023-04-25T02:41:20;6.50;99.90
12837;DHT22;6485;51.472;5.268;2023-04-25T02:43:48;6.40;99.90
12837;DHT22;6485;51.472;5.268;2023-04-25T02:46:17;6.30;99.90
12837;DHT22;6485;51.472;5.268;2023-04-25T02:49:05;6.50;99.90
12837;DHT22;6485;51.472;5.268;2023-04-25T02:51:33;6.50;99.90
12837;DHT22;6485;51.472;5.268;2023-04-25T02:54:01;6.50;99.90
12837;DHT22;6485;51.472;5.268;2023-04-25T02:56:29;6.50;99.90
12837;DHT22;6485;51.472;5.268;2023-04-25T02:58:57;6.50;99.90
12837;DHT22;6485;51.472;5.268;2023-04-25T03:01:25;6.40;99.90
12837;DHT22;6485;51.472;5.268;2023-04-25T03:03:53;6.50;99.90
12837;DHT22;6485;51.472;5.268;2023-04-25T03:06:23;6.50;99.90
12837;DHT22;6485;51.472;5.268;2023-04-25T03:08:51;6.50;99.90
12837;DHT22;6485;51.472;5.268;2023-04-25T03:11:18;6.50;99.90
12837;DHT22;6485;51.472;5.268;2023-04-25T03:13:47;6.50;99.90
12837;DHT22;6485;51.472;5.268;2023-04-25T03:16:15;6.40;99.90
12837;DHT22;6485;51.472;5.268;2023-04-25T03:18:43;6.40;99.90
12837;DHT22;6485;51.472;5.268;2023-04-25T03:21:11;6.40;99.90
12837;DHT22;6485;51.472;5.268;2023-04-25T03:23:40;6.40;99.90
12837;DHT22;6485;51.472;5.268;2023-04-25T03:26:08;6.50;99.90
12837;DHT22;6485;51.472;5.268;2023-04-25T03:28:36;6.50;99.90
12837;DHT22;6485;51.472;5.268;2023-04-25T03:31:06;6.50;99.90
12837;DHT22;6485;51.472;5.268;2023-04-25T03:33:33;6.50;99.90
12837;DHT22;6485;51.472;5.268;2023-04-25T03:36:02;6.60;99.90
12837;DHT22;6485;51.472;5.268;2023-04-25T03:38:29;6.60;99.90
12837;DHT22;6485;51.472;5.268;2023-04-25T03:40:59;6.60;99.90
12837;DHT22;6485;51.472;5.268;2023-04-25T03:43:27;6.60;99.90
12837;DHT22;6485;51.472;5.268;2023-04-25T03:45:55;6.60;99.90
12837;DHT22;6485;51.472;5.268;2023-04-25T03:48:23;6.60;99.90
12837;DHT22;6485;51.472;5.268;2023-04-25T03:50:52;6.60;99.90
12837;DHT22;6485;51.472;5.268;2023-04-25T03:53:20;6.60;99.90
12837;DHT22;6485;51.472;5.268;2023-04-25T03:55:48;6.60;99.90
12837;DHT22;6485;51.472;5.268;2023-04-25T03:58:17;6.60;99.90
12837;DHT22;6485;51.472;5.268;2023-04-25T04:00:45;6.60;99.90
12837;DHT22;6485;51.472;5.268;2023-04-25T04:03:13;6.60;99.90
12837;DHT22;6485;51.472;5.268;2023-04-25T04:05:42;6.60;99.90
12837;DHT22;6485;51.472;5.268;2023-04-25T04:08:10;6.60;99.90
12837;DHT22;6485;51.472;5.268;2023-04-25T04:10:38;6.60;99.90
12837;DHT22;6485;51.472;5.268;2023-04-25T04:13:06;6.70;99.90
12837;DHT22;6485;51.472;5.268;2023-04-25T04:15:36;6.60;99.90
12837;DHT22;6485;51.472;5.268;2023-04-25T04:18:04;6.60;99.90
12837;DHT22;6485;51.472;5.268;2023-04-25T04:20:33;6.60;99.90
12837;DHT22;6485;51.472;5.268;2023-04-25T04:23:01;6.60;99.90
12837;DHT22;6485;51.472;5.268;2023-04-25T04:25:29;6.60;99.90
12837;DHT22;6485;51.472;5.268;2023-04-25T04:27:57;6.60;99.90
12837;DHT22;6485;51.472;5.268;2023-04-25T04:30:25;6.60;99.90
12837;DHT22;6485;51.472;5.268;2023-04-25T04:32:57;6.60;99.90
12837;DHT22;6485;51.472;5.268;2023-04-25T04:35:26;6.60;99.90
12837;DHT22;6485;51.472;5.268;2023-04-25T04:37:54;6.60;99.90
12837;DHT22;6485;51.472;5.268;2023-04-25T04:40:22;6.60;99.90
12837;DHT22;6485;51.472;5.268;2023-04-25T04:42:52;6.60;99.90
12837;DHT22;6485;51.472;5.268;2023-04-25T04:45:22;6.60;99.90
12837;DHT22;6485;51.472;5.268;2023-04-25T04:47:51;6.70;99.90
12837;DHT22;6485;51.472;5.268;2023-04-25T04:50:21;6.70;99.90
12837;DHT22;6485;51.472;5.268;2023-04-25T04:52:49;6.80;99.90
12837;DHT22;6485;51.472;5.268;2023-04-25T04:55:17;6.80;99.90
12837;DHT22;6485;51.472;5.268;2023-04-25T04:57:45;6.70;99.90
12837;DHT22;6485;51.472;5.268;2023-04-25T05:00:13;6.70;99.90
12837;DHT22;6485;51.472;5.268;2023-04-25T05:02:42;6.70;99.90
12837;DHT22;6485;51.472;5.268;2023-04-25T05:05:10;6.70;99.90
12837;DHT22;6485;51.472;5.268;2023-04-25T05:07:39;6.70;99.90
12837;DHT22;6485;51.472;5.268;2023-04-25T05:10:07;6.80;99.90
12837;DHT22;6485;51.472;5.268;2023-04-25T05:12:35;6.80;99.90
12837;DHT22;6485;51.472;5.268;2023-04-25T05:15:04;6.80;99.90
12837;DHT22;6485;51.472;5.268;2023-04-25T05:17:32;6.80;99.90
12837;DHT22;6485;51.472;5.268;2023-04-25T05:20:00;6.80;99.90
12837;DHT22;6485;51.472;5.268;2023-04-25T05:22:29;6.80;99.90
12837;DHT22;6485;51.472;5.268;2023-04-25T05:24:58;6.80;99.90
12837;DHT22;6485;51.472;5.268;2023-04-25T05:27:26;6.80;99.90
12837;DHT22;6485;51.472;5.268;2023-04-25T05:29:54;6.80;99.90
12837;DHT22;6485;51.472;5.268;2023-04-25T05:32:22;6.90;99.90
12837;DHT22;6485;51.472;5.268;2023-04-25T05:34:52;6.90;99.90
12837;DHT22;6485;51.472;5.268;2023-04-25T05:37:19;6.90;99.90
12837;DHT22;6485;51.472;5.268;2023-04-25T05:39:47;6.90;99.90
12837;DHT22;6485;51.472;5.268;2023-04-25T05:42:17;6.90;99.90
12837;DHT22;6485;51.472;5.268;2023-04-25T05:44:45;6.90;99.90
12837;DHT22;6485;51.472;5.268;2023-04-25T05:47:12;7.00;99.90
12837;DHT22;6485;51.472;5.268;2023-04-25T05:49:40;7.10;99.90
12837;DHT22;6485;51.472;5.268;2023-04-25T05:52:08;7.10;99.90
12837;DHT22;6485;51.472;5.268;2023-04-25T05:54:36;7.10;99.90
12837;DHT22;6485;51.472;5.268;2023-04-25T05:57:04;7.10;99.90
12837;DHT22;6485;51.472;5.268;2023-04-25T05:59:34;7.10;99.90
12837;DHT22;6485;51.472;5.268;2023-04-25T06:02:02;7.10;99.90
12837;DHT22;6485;51.472;5.268;2023-04-25T06:04:31;7.10;99.90
12837;DHT22;6485;51.472;5.268;2023-04-25T06:07:00;7.10;99.90
12837;DHT22;6485;51.472;5.268;2023-04-25T06:09:27;7.10;99.90
12837;DHT22;6485;51.472;5.268;2023-04-25T06:11:55;7.20;99.90
12837;DHT22;6485;51.472;5.268;2023-04-25T06:14:23;7.20;99.90
12837;DHT22;6485;51.472;5.268;2023-04-25T06:16:55;7.30;99.90
12837;DHT22;6485;51.472;5.268;2023-04-25T06:19:23;7.40;99.90
12837;DHT22;6485;51.472;5.268;2023-04-25T06:21:51;7.50;99.90
12837;DHT22;6485;51.472;5.268;2023-04-25T06:24:19;7.60;99.90
12837;DHT22;6485;51.472;5.268;2023-04-25T06:26:47;7.70;99.90
12837;DHT22;6485;51.472;5.268;2023-04-25T06:29:15;7.80;99.90
12837;DHT22;6485;51.472;5.268;2023-04-25T06:31:42;7.90;99.90
12837;DHT22;6485;51.472;5.268;2023-04-25T06:34:13;7.80;99.90
12837;DHT22;6485;51.472;5.268;2023-04-25T06:36:41;7.90;99.90
12837;DHT22;6485;51.472;5.268;2023-04-25T06:39:10;7.80;99.90
12837;DHT22;6485;51.472;5.268;2023-04-25T06:41:38;7.90;99.90
12837;DHT22;6485;51.472;5.268;2023-04-25T06:44:06;7.90;99.90
12837;DHT22;6485;51.472;5.268;2023-04-25T06:46:33;8.00;99.90
12837;DHT22;6485;51.472;5.268;2023-04-25T06:49:03;8.10;99.90
12837;DHT22;6485;51.472;5.268;2023-04-25T06:51:32;8.10;99.90
12837;DHT22;6485;51.472;5.268;2023-04-25T06:54:00;8.00;99.90
12837;DHT22;6485;51.472;5.268;2023-04-25T06:56:28;8.10;99.90
12837;DHT22;6485;51.472;5.268;2023-04-25T06:58:57;8.20;99.90
12837;DHT22;6485;51.472;5.268;2023-04-25T07:01:27;8.30;99.90
12837;DHT22;6485;51.472;5.268;2023-04-25T07:03:55;8.60;99.90
12837;DHT22;6485;51.472;5.268;2023-04-25T07:06:23;8.60;99.90
12837;DHT22;6485;51.472;5.268;2023-04-25T07:08:53;8.70;99.90
12837;DHT22;6485;51.472;5.268;2023-04-25T07:11:22;9.00;99.90
12837;DHT22;6485;51.472;5.268;2023-04-25T07:13:50;9.30;99.90
12837;DHT22;6485;51.472;5.268;2023-04-25T07:16:18;9.30;99.90
12837;DHT22;6485;51.472;5.268;2023-04-25T07:18:46;9.30;99.90
12837;DHT22;6485;51.472;5.268;2023-04-25T07:21:14;9.20;99.90
12837;DHT22;6485;51.472;5.268;2023-04-25T07:23:42;9.10;99.90
12837;DHT22;6485;51.472;5.268;2023-04-25T07:26:12;9.10;99.90
12837;DHT22;6485;51.472;5.268;2023-04-25T07:28:40;9.00;99.90
12837;DHT22;6485;51.472;5.268;2023-04-25T07:31:07;9.00;99.90
12837;DHT22;6485;51.472;5.268;2023-04-25T07:33:35;9.00;99.90
12837;DHT22;6485;51.472;5.268;2023-04-25T07:36:04;8.90;99.90
12837;DHT22;6485;51.472;5.268;2023-04-25T07:38:31;9.20;99.90
12837;DHT22;6485;51.472;5.268;2023-04-25T07:40:59;9.40;99.90
12837;DHT22;6485;51.472;5.268;2023-04-25T07:43:29;9.50;99.90
12837;DHT22;6485;51.472;5.268;2023-04-25T07:45:56;9.50;99.90
12837;DHT22;6485;51.472;5.268;2023-04-25T07:48:24;9.40;99.90
12837;DHT22;6485;51.472;5.268;2023-04-25T07:50:52;9.40;99.90
12837;DHT22;6485;51.472;5.268;2023-04-25T07:53:20;9.40;99.90
12837;DHT22;6485;51.472;5.268;2023-04-25T07:55:48;9.50;99.90
12837;DHT22;6485;51.472;5.268;2023-04-25T07:58:16;9.50;99.90
12837;DHT22;6485;51.472;5.268;2023-04-25T08:00:49;9.50;99.90
12837;DHT22;6485;51.472;5.268;2023-04-25T08:03:16;9.20;99.90
12837;DHT22;6485;51.472;5.268;2023-04-25T08:05:45;9.10;99.90
12837;DHT22;6485;51.472;5.268;2023-04-25T08:08:13;8.90;99.90
12837;DHT22;6485;51.472;5.268;2023-04-25T08:10:41;8.90;99.90
12837;DHT22;6485;51.472;5.268;2023-04-25T08:13:09;8.70;99.90
12837;DHT22;6485;51.472;5.268;2023-04-25T08:15:37;8.70;99.90
12837;DHT22;6485;51.472;5.268;2023-04-25T08:18:07;8.60;99.90
12837;DHT22;6485;51.472;5.268;2023-04-25T08:20:35;8.70;99.90
12837;DHT22;6485;51.472;5.268;2023-04-25T08:23:03;8.80;99.90
12837;DHT22;6485;51.472;5.268;2023-04-25T08:25:31;8.90;99.90
12837;DHT22;6485;51.472;5.268;2023-04-25T08:27:59;8.80;99.90
12837;DHT22;6485;51.472;5.268;2023-04-25T08:30:29;9.00;99.90
12837;DHT22;6485;51.472;5.268;2023-04-25T08:32:57;9.20;99.90
12837;DHT22;6485;51.472;5.268;2023-04-25T08:35:26;9.40;99.90
12837;DHT22;6485;51.472;5.268;2023-04-25T08:37:54;9.40;99.90
12837;DHT22;6485;51.472;5.268;2023-04-25T08:40:22;9.40;99.90
12837;DHT22;6485;51.472;5.268;2023-04-25T08:42:55;9.40;99.90
12837;DHT22;6485;51.472;5.268;2023-04-25T08:45:24;9.50;99.90
12837;DHT22;6485;51.472;5.268;2023-04-25T08:47:54;9.60;99.90
12837;DHT22;6485;51.472;5.268;2023-04-25T08:50:23;9.80;99.90
12837;DHT22;6485;51.472;5.268;2023-04-25T08:52:54;10.00;99.90
12837;DHT22;6485;51.472;5.268;2023-04-25T08:55:24;9.80;99.90
12837;DHT22;6485;51.472;5.268;2023-04-25T08:57:53;9.80;99.90
12837;DHT22;6485;51.472;5.268;2023-04-25T09:00:23;10.10;99.90
12837;DHT22;6485;51.472;5.268;2023-04-25T09:02:51;10.20;99.90
12837;DHT22;6485;51.472;5.268;2023-04-25T09:05:20;10.10;99.90
12837;DHT22;6485;51.472;5.268;2023-04-25T09:07:49;9.90;99.90
12837;DHT22;6485;51.472;5.268;2023-04-25T09:10:18;9.90;99.90
12837;DHT22;6485;51.472;5.268;2023-04-25T09:12:58;10.00;99.90
12837;DHT22;6485;51.472;5.268;2023-04-25T09:15:29;10.20;99.90
12837;DHT22;6485;51.472;5.268;2023-04-25T09:17:57;10.20;99.90
12837;DHT22;6485;51.472;5.268;2023-04-25T09:20:25;10.20;99.90
12837;DHT22;6485;51.472;5.268;2023-04-25T09:23:00;10.10;99.90
12837;DHT22;6485;51.472;5.268;2023-04-25T09:25:34;10.00;99.90
12837;DHT22;6485;51.472;5.268;2023-04-25T09:28:05;9.90;99.90
12837;DHT22;6485;51.472;5.268;2023-04-25T09:30:34;10.00;99.90
12837;DHT22;6485;51.472;5.268;2023-04-25T09:33:06;10.00;99.90
12837;DHT22;6485;51.472;5.268;2023-04-25T09:35:37;10.00;99.90
12837;DHT22;6485;51.472;5.268;2023-04-25T09:38:09;10.10;99.90
12837;DHT22;6485;51.472;5.268;2023-04-25T09:40:43;10.20;99.90
12837;DHT22;6485;51.472;5.268;2023-04-25T09:43:18;10.30;99.90
12837;DHT22;6485;51.472;5.268;2023-04-25T09:45:46;10.30;99.90
12837;DHT22;6485;51.472;5.268;2023-04-25T09:48:17;10.40;99.90
12837;DHT22;6485;51.472;5.268;2023-04-25T09:50:48;10.40;99.90
12837;DHT22;6485;51.472;5.268;2023-04-25T09:53:31;10.50;99.90
12837;DHT22;6485;51.472;5.268;2023-04-25T09:56:00;10.60;99.90
12837;DHT22;6485;51.472;5.268;2023-04-25T09:58:30;10.60;99.90
12837;DHT22;6485;51.472;5.268;2023-04-25T10:01:01;10.60;99.90
12837;DHT22;6485;51.472;5.268;2023-04-25T10:03:30;10.70;99.90
12837;DHT22;6485;51.472;5.268;2023-04-25T10:05:59;10.80;99.90
12837;DHT22;6485;51.472;5.268;2023-04-25T10:08:28;10.50;99.90
12837;DHT22;6485;51.472;5.268;2023-04-25T10:11:00;10.70;99.90
12837;DHT22;6485;51.472;5.268;2023-04-25T10:13:29;10.70;99.90
12837;DHT22;6485;51.472;5.268;2023-04-25T10:15:58;10.80;99.90
12837;DHT22;6485;51.472;5.268;2023-04-25T10:18:27;10.80;99.90
12837;DHT22;6485;51.472;5.268;2023-04-25T10:20:56;11.00;99.90
12837;DHT22;6485;51.472;5.268;2023-04-25T10:23:24;11.20;99.90
12837;DHT22;6485;51.472;5.268;2023-04-25T10:25:52;11.50;99.90
12837;DHT22;6485;51.472;5.268;2023-04-25T10:28:22;11.60;99.90
12837;DHT22;6485;51.472;5.268;2023-04-25T10:30:56;11.60;99.90
12837;DHT22;6485;51.472;5.268;2023-04-25T10:33:34;11.00;99.90
12837;DHT22;6485;51.472;5.268;2023-04-25T10:36:08;10.90;99.90
12837;DHT22;6485;51.472;5.268;2023-04-25T10:38:37;10.70;99.90
12837;DHT22;6485;51.472;5.268;2023-04-25T10:41:05;10.60;99.90
12837;DHT22;6485;51.472;5.268;2023-04-25T10:43:37;10.60;99.90
12837;DHT22;6485;51.472;5.268;2023-04-25T10:48:51;10.50;99.90
12837;DHT22;6485;51.472;5.268;2023-04-25T10:51:20;10.60;99.90
12837;DHT22;6485;51.472;5.268;2023-04-25T10:53:58;10.60;99.90
12837;DHT22;6485;51.472;5.268;2023-04-25T10:56:27;10.70;99.90
12837;DHT22;6485;51.472;5.268;2023-04-25T10:59:07;10.80;99.90
12837;DHT22;6485;51.472;5.268;2023-04-25T11:01:37;10.90;99.90
12837;DHT22;6485;51.472;5.268;2023-04-25T11:04:05;10.60;99.90
12837;DHT22;6485;51.472;5.268;2023-04-25T11:06:36;10.60;99.90
12837;DHT22;6485;51.472;5.268;2023-04-25T11:09:09;10.70;99.90
12837;DHT22;6485;51.472;5.268;2023-04-25T11:11:39;11.10;99.90
12837;DHT22;6485;51.472;5.268;2023-04-25T11:14:09;11.20;99.90
12837;DHT22;6485;51.472;5.268;2023-04-25T11:16:37;11.40;99.90
12837;DHT22;6485;51.472;5.268;2023-04-25T11:19:05;11.30;99.90
12837;DHT22;6485;51.472;5.268;2023-04-25T11:21:33;11.50;99.90
12837;DHT22;6485;51.472;5.268;2023-04-25T11:24:01;11.40;99.90
12837;DHT22;6485;51.472;5.268;2023-04-25T11:26:29;11.10;99.90
12837;DHT22;6485;51.472;5.268;2023-04-25T11:28:58;10.80;99.90
12837;DHT22;6485;51.472;5.268;2023-04-25T11:31:28;10.90;99.90
12837;DHT22;6485;51.472;5.268;2023-04-25T11:33:56;10.70;99.90
12837;DHT22;6485;51.472;5.268;2023-04-25T11:36:24;10.40;99.90
12837;DHT22;6485;51.472;5.268;2023-04-25T11:38:53;10.40;99.90
12837;DHT22;6485;51.472;5.268;2023-04-25T11:41:21;10.60;99.90
12837;DHT22;6485;51.472;5.268;2023-04-25T11:43:49;10.80;99.90
12837;DHT22;6485;51.472;5.268;2023-04-25T11:46:19;10.90;99.90
12837;DHT22;6485;51.472;5.268;2023-04-25T11:48:48;10.60;99.90
12837;DHT22;6485;51.472;5.268;2023-04-25T11:51:17;10.30;99.90
12837;DHT22;6485;51.472;5.268;2023-04-25T11:53:45;10.10;99.90
12837;DHT22;6485;51.472;5.268;2023-04-25T11:56:13;10.20;99.90
12837;DHT22;6485;51.472;5.268;2023-04-25T11:58:54;10.30;99.90
12837;DHT22;6485;51.472;5.268;2023-04-25T12:01:26;10.00;99.90
12837;DHT22;6485;51.472;5.268;2023-04-25T12:03:58;10.00;99.90
12837;DHT22;6485;51.472;5.268;2023-04-25T12:06:37;10.10;99.90
12837;DHT22;6485;51.472;5.268;2023-04-25T12:09:07;10.20;99.90
12837;DHT22;6485;51.472;5.268;2023-04-25T12:11:45;10.20;99.90
12837;DHT22;6485;51.472;5.268;2023-04-25T12:14:20;10.20;99.90
12837;DHT22;6485;51.472;5.268;2023-04-25T12:16:48;10.30;99.90
12837;DHT22;6485;51.472;5.268;2023-04-25T12:19:18;10.60;99.90
12837;DHT22;6485;51.472;5.268;2023-04-25T12:21:47;10.70;99.90
12837;DHT22;6485;51.472;5.268;2023-04-25T12:24:25;11.00;99.90
12837;DHT22;6485;51.472;5.268;2023-04-25T12:26:58;11.40;99.90
12837;DHT22;6485;51.472;5.268;2023-04-25T12:29:28;11.50;99.90
12837;DHT22;6485;51.472;5.268;2023-04-25T12:32:04;11.50;99.90
12837;DHT22;6485;51.472;5.268;2023-04-25T12:34:33;11.70;99.90
12837;DHT22;6485;51.472;5.268;2023-04-25T12:37:02;11.90;99.90
12837;DHT22;6485;51.472;5.268;2023-04-25T12:39:30;11.80;99.90
12837;DHT22;6485;51.472;5.268;2023-04-25T12:41:58;11.50;99.90
12837;DHT22;6485;51.472;5.268;2023-04-25T12:44:26;11.50;99.90
12837;DHT22;6485;51.472;5.268;2023-04-25T12:46:54;11.30;99.90
12837;DHT22;6485;51.472;5.268;2023-04-25T12:49:23;10.80;99.90
12837;DHT22;6485;51.472;5.268;2023-04-25T12:51:53;10.80;99.90
12837;DHT22;6485;51.472;5.268;2023-04-25T12:54:21;10.60;99.90
12837;DHT22;6485;51.472;5.268;2023-04-25T12:56:49;10.60;99.90
12837;DHT22;6485;51.472;5.268;2023-04-25T12:59:17;10.60;99.90
12837;DHT22;6485;51.472;5.268;2023-04-25T13:01:46;10.70;99.90
12837;DHT22;6485;51.472;5.268;2023-04-25T13:04:14;10.60;99.90
12837;DHT22;6485;51.472;5.268;2023-04-25T13:06:43;10.50;99.90
12837;DHT22;6485;51.472;5.268;2023-04-25T13:09:12;10.40;99.90
12837;DHT22;6485;51.472;5.268;2023-04-25T13:11:41;10.40;99.90
12837;DHT22;6485;51.472;5.268;2023-04-25T13:14:10;10.60;99.90
12837;DHT22;6485;51.472;5.268;2023-04-25T13:16:37;10.60;99.90
12837;DHT22;6485;51.472;5.268;2023-04-25T13:19:05;10.80;99.90
12837;DHT22;6485;51.472;5.268;2023-04-25T13:21:34;11.00;99.90
12837;DHT22;6485;51.472;5.268;2023-04-25T13:24:02;11.20;99.90
12837;DHT22;6485;51.472;5.268;2023-04-25T13:26:31;11.50;99.90
12837;DHT22;6485;51.472;5.268;2023-04-25T13:28:59;11.40;99.90
12837;DHT22;6485;51.472;5.268;2023-04-25T13:31:30;11.30;99.90
12837;DHT22;6485;51.472;5.268;2023-04-25T13:33:58;11.00;99.90
12837;DHT22;6485;51.472;5.268;2023-04-25T13:36:26;10.70;99.90
12837;DHT22;6485;51.472;5.268;2023-04-25T13:38:54;10.50;99.90
12837;DHT22;6485;51.472;5.268;2023-04-25T13:41:22;10.40;99.90
12837;DHT22;6485;51.472;5.268;2023-04-25T13:43:52;10.40;99.90
12837;DHT22;6485;51.472;5.268;2023-04-25T13:46:20;10.40;99.90
12837;DHT22;6485;51.472;5.268;2023-04-25T13:49:08;10.40;99.90
12837;DHT22;6485;51.472;5.268;2023-04-25T13:51:40;10.60;99.90
12837;DHT22;6485;51.472;5.268;2023-04-25T13:54:09;10.70;99.90
12837;DHT22;6485;51.472;5.268;2023-04-25T13:56:37;10.90;99.90
12837;DHT22;6485;51.472;5.268;2023-04-25T13:59:06;10.90;99.90
12837;DHT22;6485;51.472;5.268;2023-04-25T14:01:34;11.00;99.90
12837;DHT22;6485;51.472;5.268;2023-04-25T14:04:03;11.00;99.90
12837;DHT22;6485;51.472;5.268;2023-04-25T14:06:31;11.10;99.90
12837;DHT22;6485;51.472;5.268;2023-04-25T14:08:59;11.10;99.90
12837;DHT22;6485;51.472;5.268;2023-04-25T14:11:28;11.30;99.90
12837;DHT22;6485;51.472;5.268;2023-04-25T14:13:56;11.50;99.90
12837;DHT22;6485;51.472;5.268;2023-04-25T14:16:25;11.30;99.90
12837;DHT22;6485;51.472;5.268;2023-04-25T14:18:53;11.30;99.90
12837;DHT22;6485;51.472;5.268;2023-04-25T14:21:22;11.20;99.90
12837;DHT22;6485;51.472;5.268;2023-04-25T14:23:50;11.10;99.90
12837;DHT22;6485;51.472;5.268;2023-04-25T14:26:18;10.90;99.90
12837;DHT22;6485;51.472;5.268;2023-04-25T14:28:46;10.80;99.90
12837;DHT22;6485;51.472;5.268;2023-04-25T14:31:14;10.80;99.90
12837;DHT22;6485;51.472;5.268;2023-04-25T14:33:43;11.00;99.90
12837;DHT22;6485;51.472;5.268;2023-04-25T14:36:12;11.00;99.90
12837;DHT22;6485;51.472;5.268;2023-04-25T14:38:40;11.00;99.90
12837;DHT22;6485;51.472;5.268;2023-04-25T14:41:08;10.90;99.90
12837;DHT22;6485;51.472;5.268;2023-04-25T14:43:37;10.80;99.90
12837;DHT22;6485;51.472;5.268;2023-04-25T14:46:06;11.00;99.90
12837;DHT22;6485;51.472;5.268;2023-04-25T14:48:34;11.10;99.90
12837;DHT22;6485;51.472;5.268;2023-04-25T14:51:04;11.10;99.90
12837;DHT22;6485;51.472;5.268;2023-04-25T14:53:32;11.10;99.90
12837;DHT22;6485;51.472;5.268;2023-04-25T14:55:59;11.10;99.90
12837;DHT22;6485;51.472;5.268;2023-04-25T14:58:27;11.10;99.90
12837;DHT22;6485;51.472;5.268;2023-04-25T15:00:55;11.10;99.90
12837;DHT22;6485;51.472;5.268;2023-04-25T15:03:23;11.10;99.90
12837;DHT22;6485;51.472;5.268;2023-04-25T15:05:52;11.20;99.90
12837;DHT22;6485;51.472;5.268;2023-04-25T15:08:22;11.20;99.90
12837;DHT22;6485;51.472;5.268;2023-04-25T15:10:50;11.40;99.90
12837;DHT22;6485;51.472;5.268;2023-04-25T15:13:18;11.70;99.90
12837;DHT22;6485;51.472;5.268;2023-04-25T15:15:46;11.80;99.90
12837;DHT22;6485;51.472;5.268;2023-04-25T15:18:19;11.90;99.90
12837;DHT22;6485;51.472;5.268;2023-04-25T15:20:48;11.90;99.90
12837;DHT22;6485;51.472;5.268;2023-04-25T15:23:16;11.60;99.90
12837;DHT22;6485;51.472;5.268;2023-04-25T15:25:46;11.30;99.90
12837;DHT22;6485;51.472;5.268;2023-04-25T15:28:14;11.20;99.90
12837;DHT22;6485;51.472;5.268;2023-04-25T15:30:42;11.20;99.90
12837;DHT22;6485;51.472;5.268;2023-04-25T15:33:10;11.00;99.90
12837;DHT22;6485;51.472;5.268;2023-04-25T15:35:38;11.10;99.90
12837;DHT22;6485;51.472;5.268;2023-04-25T15:38:06;11.10;99.90
12837;DHT22;6485;51.472;5.268;2023-04-25T15:40:36;11.20;99.90
12837;DHT22;6485;51.472;5.268;2023-04-25T15:43:06;11.40;99.90
12837;DHT22;6485;51.472;5.268;2023-04-25T15:45:40;11.30;99.90
12837;DHT22;6485;51.472;5.268;2023-04-25T15:48:08;11.20;99.90
12837;DHT22;6485;51.472;5.268;2023-04-25T15:50:36;11.10;99.90
12837;DHT22;6485;51.472;5.268;2023-04-25T15:53:04;10.90;99.90
12837;DHT22;6485;51.472;5.268;2023-04-25T15:55:33;10.90;99.90
12837;DHT22;6485;51.472;5.268;2023-04-25T15:58:01;11.00;99.90
12837;DHT22;6485;51.472;5.268;2023-04-25T16:00:31;11.10;99.90
12837;DHT22;6485;51.472;5.268;2023-04-25T16:03:01;10.90;99.90
12837;DHT22;6485;51.472;5.268;2023-04-25T16:05:30;10.90;99.90
12837;DHT22;6485;51.472;5.268;2023-04-25T16:07:58;10.80;99.90